Portada
METAR-TAF:

METAR-TAF

Aeroports :

Hagåtña, Guam, Estats Units d'Amèrica

latitud: 13-29N, longitud: 144-48E, altitud: 91 m

Observació

L'informe es va fer fa 36 minuts, a les 14:54 UTC
Vent 6 kt del Est
Temperatura 27°C
Humitat 84%
Pressió 1011 hPa
Visibilitat: 16.1 km
Escasses núvols a una alçada de 3000 ft

METAR: PGUM 081454Z COR 09006KT 10SM FEW030 27/24 A2986 RMK AO2 RAE1358 SLP103 P0000 60000 T02670239 58009 $

Hora: 01:30 (15:30 UTC)

Pronòstic

L'informe es va fer fa 3 hores i 52 minuts, a les 11:38 UTC
Pronòstic vàlid del 08 a les 12 UTC al 09 a les 18 UTC
Vent 10 kt del Est
Visibilitat: 10 km
Núvols disperses a una alçada de 1800 ft
xàfecs en les proximitats
A partir de les 08 a les 2300 UTC
Vent 15 kt del Est
Visibilitat: 10 km
Núvols disperses a una alçada de 1800 ft
Núvols disperses a una alçada de 5000 ft
xàfecs en les proximitats

TAF: PGUM 081138Z 0812/0918 09010KT P6SM VCSH SCT018 FM082300 09015KT P6SM VCSH SCT018 SCT050

Observacions i pronòstics meteorològics de més de 4000 aeroports (METAR i TAF).

Les estacions disponibles són els punts grocs i vermells al mapa.

Posi el ratolí al punt desitjat per veure el nom de l'estació.

Feu clic per veure les observacions i els pronòstics meteorològics.

Per canviar el mapa: feu clic els botons verds amb una creu de color negre per apropar; al botó verd amb un guió per allunyar la imatge; o en les fletxes verdes per a mapes adjacents.


METAR-TAF: